Time;durP1;ratioP1;P1;durP2;ratioP2;P2;SDS_P1;SDS_P2;PMS_P1;PMS_P2;Temp;Humidity;BMP_temperature;BMP_pressure;BME280_temperature;BME280_humidity;BME280_pressure;Samples;Min_cycle;Max_cycle;Signal;HPM_P1;HPM_P2
2021/05/01 00:00:53;;;;;;;3.47;1.35;;;;;;;;;;5095753;28;20375;-20
2021/05/01 00:03:18;;;;;;;3.22;1.45;;;;;;;;;;5095780;28;20073;-20
2021/05/01 00:05:44;;;;;;;4.13;1.23;;;;;;;;;;5095756;28;20020;-20
2021/05/01 00:08:09;;;;;;;1.80;1.13;;;;;;;;;;5095960;28;20035;-20
2021/05/01 00:10:34;;;;;;;5.60;1.50;;;;;;;;;;5096023;28;20081;-20
2021/05/01 00:13:00;;;;;;;7.72;1.38;;;;;;;;;;5095904;28;20031;-20
2021/05/01 00:15:25;;;;;;;4.30;1.58;;;;;;;;;;5095615;28;20680;-20
2021/05/01 00:17:50;;;;;;;6.75;1.95;;;;;;;;;;5095570;28;20032;-20
2021/05/01 00:20:16;;;;;;;3.35;1.85;;;;;;;;;;5095394;28;20050;-20
2021/05/01 00:22:41;;;;;;;4.78;2.30;;;;;;;;;;5095532;28;20067;-20
2021/05/01 00:25:07;;;;;;;10.15;2.50;;;;;;;;;;5095403;28;20016;-20
2021/05/01 00:27:32;;;;;;;5.95;2.50;;;;;;;;;;5095618;28;20101;-20
2021/05/01 00:29:57;;;;;;;5.68;1.90;;;;;;;;;;5110983;28;20097;-20
2021/05/01 00:32:23;;;;;;;4.95;1.85;;;;;;;;;;5095231;28;20069;-20
2021/05/01 00:34:48;;;;;;;4.53;2.03;;;;;;;;;;5095510;28;20012;-20
2021/05/01 00:37:14;;;;;;;4.30;1.60;;;;;;;;;;5095204;28;20638;-20
2021/05/01 00:39:39;;;;;;;4.35;1.45;;;;;;;;;;5095039;28;20115;-20
2021/05/01 00:42:05;;;;;;;6.53;2.17;;;;;;;;;;5094979;28;20043;-20
2021/05/01 00:44:30;;;;;;;3.78;1.77;;;;;;;;;;5095121;28;20031;-20
2021/05/01 00:46:55;;;;;;;3.67;1.88;;;;;;;;;;5095069;28;20405;-20
2021/05/01 00:49:21;;;;;;;6.50;1.70;;;;;;;;;;5110561;28;20356;-20
2021/05/01 00:51:46;;;;;;;3.22;1.48;;;;;;;;;;5094993;28;20070;-19
2021/05/01 00:54:11;;;;;;;2.63;1.73;;;;;;;;;;5095127;28;20032;-20
2021/05/01 00:56:37;;;;;;;10.82;1.63;;;;;;;;;;5094730;28;20383;-20
2021/05/01 00:59:02;;;;;;;4.53;1.60;;;;;;;;;;5094585;28;20024;-20
2021/05/01 01:01:29;;;;;;;7.65;1.67;;;;;;;;;;5093235;28;20378;-20
2021/05/01 01:03:54;;;;;;;4.70;1.55;;;;;;;;;;5094937;28;20024;-20
2021/05/01 01:06:20;;;;;;;5.82;1.30;;;;;;;;;;5094675;28;20123;-20
2021/05/01 01:08:45;;;;;;;8.90;2.15;;;;;;;;;;5094622;28;20012;-20
2021/05/01 01:11:11;;;;;;;4.88;1.50;;;;;;;;;;5094456;28;20498;-20
2021/05/01 01:13:36;;;;;;;4.82;1.23;;;;;;;;;;5094465;28;20020;-20
2021/05/01 01:16:02;;;;;;;3.60;1.42;;;;;;;;;;5094515;28;20043;-20
2021/05/01 01:18:28;;;;;;;4.53;1.60;;;;;;;;;;5094465;28;20063;-20
2021/05/01 01:20:54;;;;;;;2.35;1.42;;;;;;;;;;5094649;28;20095;-22
2021/05/01 01:23:20;;;;;;;1.98;1.38;;;;;;;;;;5092910;28;20016;-20
2021/05/01 01:25:45;;;;;;;4.25;1.95;;;;;;;;;;5094216;28;20032;-19
2021/05/01 01:28:10;;;;;;;4.35;1.80;;;;;;;;;;5094061;28;20024;-20
2021/05/01 01:30:36;;;;;;;6.03;2.03;;;;;;;;;;5094409;28;20045;-20
2021/05/01 01:33:08;;;;;;;6.15;1.83;;;;;;;;;;5094133;28;20131;-20
2021/05/01 01:35:34;;;;;;;2.78;1.92;;;;;;;;;;5094341;28;20028;-20
2021/05/01 01:37:59;;;;;;;4.78;1.75;;;;;;;;;;5093932;28;20103;-20
2021/05/01 01:40:25;;;;;;;6.82;2.42;;;;;;;;;;5094112;28;20494;-20
2021/05/01 01:42:52;;;;;;;3.22;1.88;;;;;;;;;;5093932;28;20662;-20
2021/05/01 01:45:19;;;;;;;5.38;2.25;;;;;;;;;;5093768;28;20028;-20
2021/05/01 01:47:44;;;;;;;8.75;2.45;;;;;;;;;;5109468;28;20032;-20
2021/05/01 01:50:11;;;;;;;5.82;2.15;;;;;;;;;;5093658;28;20101;-20
2021/05/01 01:52:37;;;;;;;7.20;2.60;;;;;;;;;;5093747;28;20024;-20
2021/05/01 01:55:09;;;;;;;11.50;2.75;;;;;;;;;;5093764;28;20020;-20
2021/05/01 01:57:35;;;;;;;3.90;2.45;;;;;;;;;;5093736;28;20096;-20
2021/05/01 02:00:01;;;;;;;5.68;2.50;;;;;;;;;;5093419;28;20547;-20
2021/05/01 02:02:27;;;;;;;9.02;2.50;;;;;;;;;;5093508;28;20028;-20
2021/05/01 02:04:52;;;;;;;7.03;2.60;;;;;;;;;;5093558;28;20019;-19
2021/05/01 02:07:18;;;;;;;14.85;2.67;;;;;;;;;;5093430;28;20028;-20
2021/05/01 02:09:44;;;;;;;3.65;2.40;;;;;;;;;;5091588;28;20031;-19
2021/05/01 02:12:09;;;;;;;8.50;2.72;;;;;;;;;;5093337;28;20024;-20
2021/05/01 02:14:34;;;;;;;4.97;2.50;;;;;;;;;;5093330;28;20126;-20
2021/05/01 02:17:00;;;;;;;5.63;3.20;;;;;;;;;;5093608;28;20107;-20
2021/05/01 02:19:25;;;;;;;8.00;3.53;;;;;;;;;;5093123;28;20394;-20
2021/05/01 02:21:50;;;;;;;5.38;2.67;;;;;;;;;;5093467;28;20042;-20
2021/05/01 02:24:16;;;;;;;6.03;2.80;;;;;;;;;;5093103;28;20020;-21
2021/05/01 02:26:41;;;;;;;10.50;2.50;;;;;;;;;;5093127;28;20074;-22
2021/05/01 02:29:07;;;;;;;5.80;2.03;;;;;;;;;;5092919;28;20048;-22
2021/05/01 02:31:32;;;;;;;7.80;2.58;;;;;;;;;;5093058;28;20024;-19
2021/05/01 02:33:58;;;;;;;5.97;2.55;;;;;;;;;;5093275;28;20020;-19
2021/05/01 02:36:23;;;;;;;4.07;2.33;;;;;;;;;;5092893;28;20050;-20
2021/05/01 02:38:48;;;;;;;3.28;2.10;;;;;;;;;;5092759;28;20074;-20
2021/05/01 02:41:14;;;;;;;6.70;1.90;;;;;;;;;;5093120;28;20378;-21
2021/05/01 02:43:39;;;;;;;3.22;2.15;;;;;;;;;;5091429;28;20024;-21
2021/05/01 02:46:05;;;;;;;2.42;1.70;;;;;;;;;;5092849;28;20036;-19
2021/05/01 02:48:31;;;;;;;4.22;1.90;;;;;;;;;;5092781;28;20072;-19
2021/05/01 02:50:57;;;;;;;4.53;1.50;;;;;;;;;;5092571;28;20031;-19
2021/05/01 02:53:23;;;;;;;8.23;1.92;;;;;;;;;;5092701;28;20053;-19
2021/05/01 02:55:49;;;;;;;2.20;1.30;;;;;;;;;;5091370;28;20020;-19
2021/05/01 02:58:14;;;;;;;6.47;1.67;;;;;;;;;;5092494;28;20028;-19
2021/05/01 03:00:40;;;;;;;3.15;1.70;;;;;;;;;;5092575;28;20471;-19
2021/05/01 03:03:05;;;;;;;2.95;1.30;;;;;;;;;;5092536;28;20028;-19
2021/05/01 03:05:31;;;;;;;3.45;1.67;;;;;;;;;;5092397;28;20032;-18
2021/05/01 03:07:56;;;;;;;3.53;1.77;;;;;;;;;;5092572;28;20031;-19
2021/05/01 03:10:23;;;;;;;3.88;2.10;;;;;;;;;;5092494;28;20111;-19
2021/05/01 03:12:48;;;;;;;5.35;1.83;;;;;;;;;;5092612;28;20026;-19
2021/05/01 03:15:14;;;;;;;6.43;1.42;;;;;;;;;;5092670;28;20107;-19
2021/05/01 03:17:40;;;;;;;4.38;1.77;;;;;;;;;;5091174;28;20020;-20
2021/05/01 03:20:06;;;;;;;3.30;1.75;;;;;;;;;;5107838;28;20042;-19
2021/05/01 03:22:32;;;;;;;4.10;2.15;;;;;;;;;;5109838;28;20020;-19
2021/05/01 03:24:58;;;;;;;3.08;1.58;;;;;;;;;;5096589;28;20070;-19
2021/05/01 03:27:23;;;;;;;7.85;2.00;;;;;;;;;;5096494;28;20012;-19
2021/05/01 03:29:49;;;;;;;4.53;2.00;;;;;;;;;;5096344;28;20088;-19
2021/05/01 03:32:14;;;;;;;5.22;2.03;;;;;;;;;;5112063;28;20032;-19
2021/05/01 03:34:40;;;;;;;6.90;2.35;;;;;;;;;;5096628;28;20043;-19
2021/05/01 03:37:05;;;;;;;3.75;2.15;;;;;;;;;;5112128;28;20020;-19
2021/05/01 03:39:31;;;;;;;3.95;2.15;;;;;;;;;;5096362;28;20110;-19
2021/05/01 03:41:56;;;;;;;4.68;2.30;;;;;;;;;;5095002;28;20027;-19
2021/05/01 03:44:21;;;;;;;5.55;2.38;;;;;;;;;;5096165;28;20055;-19
2021/05/01 03:46:47;;;;;;;13.73;2.08;;;;;;;;;;5096422;28;20035;-19
2021/05/01 03:49:12;;;;;;;10.95;2.30;;;;;;;;;;5096003;28;20075;-19
2021/05/01 03:51:37;;;;;;;3.13;1.70;;;;;;;;;;5096100;28;20020;-19
2021/05/01 03:54:03;;;;;;;7.32;2.72;;;;;;;;;;5096090;28;20028;-19
2021/05/01 03:56:30;;;;;;;5.05;2.72;;;;;;;;;;5096232;28;20012;-19
2021/05/01 03:58:56;;;;;;;6.40;2.38;;;;;;;;;;5094545;28;20440;-18
2021/05/01 04:01:21;;;;;;;6.78;1.90;;;;;;;;;;5095539;28;20070;-19
2021/05/01 04:03:47;;;;;;;14.93;2.45;;;;;;;;;;5095910;28;20047;-19
2021/05/01 04:06:12;;;;;;;5.60;1.95;;;;;;;;;;5095715;28;20382;-19
2021/05/01 04:08:38;;;;;;;5.90;1.83;;;;;;;;;;5095737;28;20111;-19
2021/05/01 04:11:04;;;;;;;6.10;2.70;;;;;;;;;;5095761;28;20031;-18
2021/05/01 04:13:29;;;;;;;4.50;1.70;;;;;;;;;;5095805;28;20028;-19
2021/05/01 04:15:55;;;;;;;3.05;2.08;;;;;;;;;;5095552;28;20024;-19
2021/05/01 04:18:21;;;;;;;5.85;1.83;;;;;;;;;;5095741;28;20040;-19
2021/05/01 04:20:47;;;;;;;4.75;1.90;;;;;;;;;;5094369;28;20383;-19
2021/05/01 04:23:12;;;;;;;5.50;2.10;;;;;;;;;;5095311;28;20039;-20
2021/05/01 04:25:38;;;;;;;7.30;2.20;;;;;;;;;;5095794;28;20020;-20
2021/05/01 04:28:06;;;;;;;2.85;2.08;;;;;;;;;;5095384;28;20030;-20
2021/05/01 04:30:32;;;;;;;4.40;1.85;;;;;;;;;;5095278;28;20418;-20
2021/05/01 04:32:58;;;;;;;10.75;2.67;;;;;;;;;;5094876;28;20615;-20
2021/05/01 04:35:24;;;;;;;5.80;3.33;;;;;;;;;;5095489;28;20075;-20
2021/05/01 04:37:49;;;;;;;5.85;2.70;;;;;;;;;;5095055;28;20024;-19
2021/05/01 04:40:15;;;;;;;7.13;2.03;;;;;;;;;;5095177;28;20024;-19
2021/05/01 04:42:47;;;;;;;4.15;2.00;;;;;;;;;;5095072;28;20075;-20
2021/05/01 04:45:14;;;;;;;3.22;2.40;;;;;;;;;;5095249;28;20027;-19
2021/05/01 04:47:39;;;;;;;6.03;2.63;;;;;;;;;;5095309;28;20032;-19
2021/05/01 04:50:05;;;;;;;7.60;3.58;;;;;;;;;;5094983;28;20028;-20
2021/05/01 04:52:31;;;;;;;7.47;3.65;;;;;;;;;;5095081;28;20095;-20
2021/05/01 04:54:58;;;;;;;5.07;2.97;;;;;;;;;;5110721;28;20042;-20
2021/05/01 04:57:23;;;;;;;6.15;3.83;;;;;;;;;;5094698;28;20352;-20
2021/05/01 04:59:49;;;;;;;6.70;3.90;;;;;;;;;;5093294;28;20036;-20
2021/05/01 05:02:14;;;;;;;7.68;3.53;;;;;;;;;;5094683;28;20107;-20
2021/05/01 05:04:39;;;;;;;10.73;4.45;;;;;;;;;;5094768;28;20486;-18
2021/05/01 05:07:05;;;;;;;7.57;3.78;;;;;;;;;;5094675;28;20027;-19
2021/05/01 05:09:30;;;;;;;5.80;3.25;;;;;;;;;;5094540;28;20045;-20
2021/05/01 05:11:56;;;;;;;9.10;3.40;;;;;;;;;;5094815;28;20043;-19
2021/05/01 05:14:21;;;;;;;6.90;3.88;;;;;;;;;;5094456;28;20032;-19
2021/05/01 05:16:46;;;;;;;5.47;3.33;;;;;;;;;;5094579;28;20055;-20
2021/05/01 05:19:12;;;;;;;7.82;3.33;;;;;;;;;;5094437;28;20051;-19
2021/05/01 05:21:37;;;;;;;10.75;3.42;;;;;;;;;;5110476;28;20360;-19
2021/05/01 05:24:04;;;;;;;5.10;3.28;;;;;;;;;;5094375;28;20028;-20
2021/05/01 05:26:30;;;;;;;8.23;3.20;;;;;;;;;;5094116;28;20489;-19
2021/05/01 05:28:55;;;;;;;8.38;3.13;;;;;;;;;;5094042;28;20452;-20
2021/05/01 05:31:21;;;;;;;5.97;2.58;;;;;;;;;;5094102;28;20021;-20
2021/05/01 05:33:46;;;;;;;5.72;3.08;;;;;;;;;;5094408;28;20161;-20
2021/05/01 05:36:11;;;;;;;3.20;2.33;;;;;;;;;;5094089;28;20463;-19
2021/05/01 05:38:37;;;;;;;9.15;4.28;;;;;;;;;;5093841;28;20044;-19
2021/05/01 05:41:02;;;;;;;6.80;3.72;;;;;;;;;;5093965;28;20087;-20
2021/05/01 05:43:30;;;;;;;7.10;3.10;;;;;;;;;;5093906;28;20475;-19
2021/05/01 05:45:56;;;;;;;5.53;3.00;;;;;;;;;;5093100;28;20016;-19
2021/05/01 05:48:22;;;;;;;6.65;2.63;;;;;;;;;;5094038;28;20051;-20
2021/05/01 05:50:47;;;;;;;3.78;2.58;;;;;;;;;;5094065;28;20055;-19
2021/05/01 05:53:12;;;;;;;7.00;2.90;;;;;;;;;;5093697;28;20471;-20
2021/05/01 05:55:38;;;;;;;10.23;2.53;;;;;;;;;;5093722;28;20024;-20
2021/05/01 05:58:03;;;;;;;7.18;2.72;;;;;;;;;;5093627;28;20027;-19
2021/05/01 06:00:29;;;;;;;3.47;2.45;;;;;;;;;;5093523;28;20043;-19
2021/05/01 06:02:56;;;;;;;3.70;1.92;;;;;;;;;;5093632;28;20059;-19
2021/05/01 06:05:24;;;;;;;8.18;2.13;;;;;;;;;;5092161;28;20020;-19
2021/05/01 06:07:58;;;;;;;4.30;2.42;;;;;;;;;;5093778;28;20024;-19
2021/05/01 06:10:24;;;;;;;4.47;2.20;;;;;;;;;;5093320;28;20486;-19
2021/05/01 06:12:49;;;;;;;5.25;2.50;;;;;;;;;;5093337;28;20024;-19
2021/05/01 06:15:16;;;;;;;3.67;2.70;;;;;;;;;;5093533;28;20063;-19
2021/05/01 06:17:43;;;;;;;3.83;2.60;;;;;;;;;;5093232;28;20028;-19
2021/05/01 06:20:09;;;;;;;4.60;2.92;;;;;;;;;;5092975;28;20043;-19
2021/05/01 06:22:34;;;;;;;4.45;2.35;;;;;;;;;;5093006;28;20496;-19
2021/05/01 06:25:01;;;;;;;21.98;2.50;;;;;;;;;;5093053;28;20036;-19
2021/05/01 06:27:27;;;;;;;7.10;3.00;;;;;;;;;;5092292;28;20108;-19
2021/05/01 06:29:52;;;;;;;8.10;3.22;;;;;;;;;;5091210;28;20494;-20
2021/05/01 06:32:19;;;;;;;8.52;2.92;;;;;;;;;;5092235;28;20032;-20
2021/05/01 06:34:49;;;;;;;3.05;2.35;;;;;;;;;;4737816;27;10000234;-20
2021/05/01 06:37:16;;;;;;;6.90;3.35;;;;;;;;;;5088467;28;20036;-21
2021/05/01 06:39:47;;;;;;;6.35;2.63;;;;;;;;;;5087665;28;20505;-21
2021/05/01 06:42:17;;;;;;;4.60;2.38;;;;;;;;;;5089480;28;20020;-21
2021/05/01 06:44:49;;;;;;;3.97;2.33;;;;;;;;;;5088583;28;20417;-21
2021/05/01 06:47:16;;;;;;;4.07;2.67;;;;;;;;;;5104943;28;20074;-21
2021/05/01 06:49:44;;;;;;;3.42;2.60;;;;;;;;;;5087703;28;20020;-21
2021/05/01 06:52:12;;;;;;;4.88;2.00;;;;;;;;;;5089134;28;20095;-22
2021/05/01 06:54:38;;;;;;;2.88;1.60;;;;;;;;;;5089142;28;20020;-20
2021/05/01 06:57:04;;;;;;;9.05;2.50;;;;;;;;;;5088226;28;20093;-20
2021/05/01 06:59:30;;;;;;;3.67;1.92;;;;;;;;;;5087857;28;20032;-20
2021/05/01 07:01:56;;;;;;;6.65;2.55;;;;;;;;;;5088934;28;20043;-20
2021/05/01 07:04:21;;;;;;;9.20;2.17;;;;;;;;;;5088122;28;20020;-20
2021/05/01 07:06:48;;;;;;;9.93;2.80;;;;;;;;;;5088291;28;20032;-19
2021/05/01 07:09:14;;;;;;;4.32;2.50;;;;;;;;;;5088049;28;20039;-19
2021/05/01 07:11:42;;;;;;;2.97;2.53;;;;;;;;;;5087969;28;20417;-19
2021/05/01 07:14:10;;;;;;;5.70;2.90;;;;;;;;;;5088602;28;20020;-19
2021/05/01 07:16:36;;;;;;;3.85;1.98;;;;;;;;;;5088750;28;20029;-19
2021/05/01 07:19:02;;;;;;;4.22;2.33;;;;;;;;;;5087045;28;20036;-19
2021/05/01 07:21:27;;;;;;;4.53;2.25;;;;;;;;;;5088266;28;20047;-19
2021/05/01 07:23:53;;;;;;;6.90;3.35;;;;;;;;;;5087371;28;20044;-21
2021/05/01 07:26:19;;;;;;;5.22;2.55;;;;;;;;;;5088394;28;20107;-19
2021/05/01 07:28:46;;;;;;;2.95;2.15;;;;;;;;;;5088470;28;20132;-19
2021/05/01 07:31:16;;;;;;;9.15;1.95;;;;;;;;;;5088450;28;20031;-19
2021/05/01 07:33:45;;;;;;;7.78;2.88;;;;;;;;;;5088349;28;20036;-20
2021/05/01 07:36:11;;;;;;;5.22;2.10;;;;;;;;;;5104286;28;20016;-19
2021/05/01 07:38:37;;;;;;;2.55;1.92;;;;;;;;;;5088275;28;20064;-21
2021/05/01 07:41:03;;;;;;;5.60;2.03;;;;;;;;;;5087865;28;20051;-22
2021/05/01 07:43:29;;;;;;;3.78;2.25;;;;;;;;;;5088801;28;20119;-22
2021/05/01 07:45:56;;;;;;;4.25;2.05;;;;;;;;;;5088168;28;20108;-21
2021/05/01 07:48:22;;;;;;;7.63;3.72;;;;;;;;;;5088464;28;20136;-21
2021/05/01 07:50:48;;;;;;;2.50;1.63;;;;;;;;;;5090140;28;20454;-21
2021/05/01 07:53:14;;;;;;;4.68;2.03;;;;;;;;;;5092327;28;20355;-21
2021/05/01 07:55:40;;;;;;;2.72;1.60;;;;;;;;;;5092137;28;20467;-22
2021/05/01 07:58:06;;;;;;;6.60;1.75;;;;;;;;;;5090147;28;20077;-22
2021/05/01 08:00:31;;;;;;;2.78;1.42;;;;;;;;;;5091969;28;20042;-21
2021/05/01 08:02:57;;;;;;;1.63;1.25;;;;;;;;;;5092173;28;20024;-21
2021/05/01 08:05:22;;;;;;;4.50;1.48;;;;;;;;;;5092244;28;20504;-18
2021/05/01 08:07:51;;;;;;;5.82;1.27;;;;;;;;;;5092444;28;20498;-20
2021/05/01 08:10:17;;;;;;;5.47;1.30;;;;;;;;;;5095724;28;20451;-20
2021/05/01 08:12:42;;;;;;;2.40;1.20;;;;;;;;;;5096017;28;20032;-20
2021/05/01 08:15:09;;;;;;;3.88;1.30;;;;;;;;;;5095646;28;20027;-20
2021/05/01 08:17:34;;;;;;;2.63;1.20;;;;;;;;;;5095581;28;20039;-19
2021/05/01 08:20:00;;;;;;;7.38;1.27;;;;;;;;;;5095724;28;20024;-19
2021/05/01 08:22:26;;;;;;;2.15;1.02;;;;;;;;;;5095500;28;20034;-20
2021/05/01 08:24:51;;;;;;;2.60;1.27;;;;;;;;;;5095550;28;20027;-20
2021/05/01 08:27:17;;;;;;;3.00;1.25;;;;;;;;;;5095471;28;20035;-20
2021/05/01 08:29:42;;;;;;;8.18;2.03;;;;;;;;;;5111019;28;20040;-19
2021/05/01 08:32:07;;;;;;;3.33;0.90;;;;;;;;;;5095601;28;20067;-20
2021/05/01 08:34:33;;;;;;;6.60;1.25;;;;;;;;;;5095303;28;20034;-20
2021/05/01 08:37:00;;;;;;;1.73;1.00;;;;;;;;;;5095256;28;20058;-20
2021/05/01 08:39:25;;;;;;;1.65;0.90;;;;;;;;;;5095010;28;20032;-20
2021/05/01 08:41:50;;;;;;;2.63;1.00;;;;;;;;;;5095176;28;20028;-20
2021/05/01 08:44:16;;;;;;;3.53;1.67;;;;;;;;;;5095098;28;20020;-20
2021/05/01 08:46:41;;;;;;;2.55;1.20;;;;;;;;;;5095081;28;20027;-19
2021/05/01 08:49:09;;;;;;;1.80;1.02;;;;;;;;;;5093654;28;20019;-20
2021/05/01 08:51:36;;;;;;;0.98;0.60;;;;;;;;;;5095280;28;20103;-20
2021/05/01 08:54:02;;;;;;;0.85;0.75;;;;;;;;;;5094919;28;20016;-19
2021/05/01 08:56:27;;;;;;;2.03;1.02;;;;;;;;;;5093583;28;20028;-19
2021/05/01 08:58:54;;;;;;;3.30;0.88;;;;;;;;;;5094768;28;20107;-19
2021/05/01 09:01:21;;;;;;;1.85;1.08;;;;;;;;;;5110435;28;20031;-20
2021/05/01 09:03:46;;;;;;;1.60;1.05;;;;;;;;;;5095096;28;20028;-19
2021/05/01 09:06:12;;;;;;;3.47;1.05;;;;;;;;;;5095080;28;20471;-20
2021/05/01 09:08:41;;;;;;;1.40;0.60;;;;;;;;;;5094544;28;20065;-19
2021/05/01 09:11:07;;;;;;;1.55;0.77;;;;;;;;;;5094639;28;20031;-20
2021/05/01 09:13:32;;;;;;;3.10;0.90;;;;;;;;;;5094759;28;20107;-19
2021/05/01 09:16:02;;;;;;;2.80;0.90;;;;;;;;;;5094521;28;20486;-19
2021/05/01 09:18:29;;;;;;;2.08;1.00;;;;;;;;;;5092963;28;20380;-20
2021/05/01 09:21:10;;;;;;;3.03;1.27;;;;;;;;;;5094474;28;20386;-20
2021/05/01 09:23:36;;;;;;;5.07;0.82;;;;;;;;;;5094633;28;20439;-20
2021/05/01 09:26:02;;;;;;;3.90;0.77;;;;;;;;;;5094402;28;20016;-19
2021/05/01 09:28:38;;;;;;;1.60;0.60;;;;;;;;;;5094174;28;20040;-19
2021/05/01 09:31:11;;;;;;;0.90;0.57;;;;;;;;;;5094380;28;20028;-19
2021/05/01 09:33:37;;;;;;;1.02;0.60;;;;;;;;;;5094423;28;20114;-19
2021/05/01 09:36:14;;;;;;;7.15;1.25;;;;;;;;;;5094126;28;20028;-20
2021/05/01 09:38:43;;;;;;;0.95;0.50;;;;;;;;;;5094017;28;20032;-20
2021/05/01 09:41:15;;;;;;;0.38;0.38;;;;;;;;;;5094044;28;20043;-20
2021/05/01 09:43:54;;;;;;;4.65;0.90;;;;;;;;;;5092618;28;20032;-19
2021/05/01 09:46:19;;;;;;;3.45;0.85;;;;;;;;;;5093905;28;20035;-20
2021/05/01 09:49:00;;;;;;;0.98;0.63;;;;;;;;;;5094140;28;20186;-20
2021/05/01 09:51:29;;;;;;;1.33;0.88;;;;;;;;;;5093762;28;20038;-20
2021/05/01 09:53:57;;;;;;;1.15;0.52;;;;;;;;;;5094077;28;20016;-19
2021/05/01 09:56:22;;;;;;;3.05;0.70;;;;;;;;;;5093633;28;20040;-19
2021/05/01 09:58:52;;;;;;;0.50;0.50;;;;;;;;;;5093635;28;20035;-19
2021/05/01 10:01:18;;;;;;;6.70;0.85;;;;;;;;;;5093454;28;20032;-19
2021/05/01 10:03:43;;;;;;;0.68;0.60;;;;;;;;;;5093534;28;20141;-20
2021/05/01 10:06:11;;;;;;;1.00;0.70;;;;;;;;;;5093584;28;20034;-19
2021/05/01 10:08:38;;;;;;;5.05;0.73;;;;;;;;;;5093490;28;20046;-19
2021/05/01 10:11:13;;;;;;;1.42;0.52;;;;;;;;;;5093441;28;20027;-19
2021/05/01 10:13:52;;;;;;;2.45;1.02;;;;;;;;;;5093407;28;20024;-19
2021/05/01 10:16:21;;;;;;;1.88;0.85;;;;;;;;;;5093388;28;20121;-19
2021/05/01 10:19:05;;;;;;;1.85;0.82;;;;;;;;;;5093197;28;20028;-19
2021/05/01 10:21:31;;;;;;;0.75;0.45;;;;;;;;;;5093206;28;20581;-19
2021/05/01 10:23:57;;;;;;;1.85;0.85;;;;;;;;;;5093258;28;20016;-22
2021/05/01 10:26:23;;;;;;;5.15;1.13;;;;;;;;;;5093250;28;20111;-19
2021/05/01 10:28:57;;;;;;;1.35;0.70;;;;;;;;;;5092996;28;20398;-18
2021/05/01 10:31:23;;;;;;;0.30;0.20;;;;;;;;;;5092954;28;20031;-18
2021/05/01 10:33:49;;;;;;;3.65;0.98;;;;;;;;;;5093000;28;20024;-19
2021/05/01 10:36:24;;;;;;;1.02;0.70;;;;;;;;;;5093333;28;20035;-21
2021/05/01 10:39:15;;;;;;;2.55;0.65;;;;;;;;;;5092807;28;20565;-20
2021/05/01 10:41:52;;;;;;;1.40;0.50;;;;;;;;;;5091803;28;20495;-20
2021/05/01 10:44:18;;;;;;;1.10;0.85;;;;;;;;;;5092748;28;20571;-20
2021/05/01 10:46:43;;;;;;;0.77;0.55;;;;;;;;;;5092764;28;20024;-20
2021/05/01 10:49:10;;;;;;;2.53;0.90;;;;;;;;;;5092785;28;20020;-20
2021/05/01 10:51:37;;;;;;;0.93;0.65;;;;;;;;;;5092786;28;20027;-20
2021/05/01 10:54:05;;;;;;;2.97;1.08;;;;;;;;;;5092751;28;20471;-21
2021/05/01 10:56:31;;;;;;;1.67;0.65;;;;;;;;;;5092696;28;20069;-20
2021/05/01 10:58:57;;;;;;;2.13;0.80;;;;;;;;;;5091249;28;20036;-20
2021/05/01 11:01:48;;;;;;;2.50;0.90;;;;;;;;;;5092728;28;20423;-20
2021/05/01 11:04:24;;;;;;;4.28;1.42;;;;;;;;;;5092579;28;20538;-20
2021/05/01 11:07:02;;;;;;;2.35;0.77;;;;;;;;;;5092572;28;20028;-20
2021/05/01 11:09:34;;;;;;;1.30;0.60;;;;;;;;;;5092444;28;20028;-18
2021/05/01 11:12:00;;;;;;;1.85;0.88;;;;;;;;;;5092873;28;20089;-21
2021/05/01 11:14:30;;;;;;;1.85;0.80;;;;;;;;;;5092351;28;20479;-28
2021/05/01 11:17:04;;;;;;;1.42;1.10;;;;;;;;;;5092675;28;20036;-19
2021/05/01 11:19:31;;;;;;;1.02;0.73;;;;;;;;;;5092305;28;20078;-19
2021/05/01 11:21:58;;;;;;;0.68;0.40;;;;;;;;;;5092401;28;20485;-19
2021/05/01 11:24:24;;;;;;;1.50;1.17;;;;;;;;;;5092579;28;20072;-18
2021/05/01 11:26:49;;;;;;;3.88;1.05;;;;;;;;;;5092634;28;20043;-18
2021/05/01 11:29:15;;;;;;;0.95;0.55;;;;;;;;;;5092168;28;20406;-19
2021/05/01 11:31:42;;;;;;;1.58;0.85;;;;;;;;;;5092556;28;20378;-18
2021/05/01 11:34:09;;;;;;;2.88;0.80;;;;;;;;;;5092366;28;20085;-18
2021/05/01 11:36:39;;;;;;;0.63;0.50;;;;;;;;;;5090956;28;20020;-18
2021/05/01 11:39:05;;;;;;;2.22;1.15;;;;;;;;;;5092179;28;20043;-19
2021/05/01 11:41:31;;;;;;;2.65;0.90;;;;;;;;;;5092159;28;20064;-18
2021/05/01 11:43:57;;;;;;;1.75;0.80;;;;;;;;;;5093245;28;20028;-22
2021/05/01 11:46:24;;;;;;;3.10;0.60;;;;;;;;;;5096571;28;20012;-22
2021/05/01 11:48:53;;;;;;;2.92;1.00;;;;;;;;;;5094968;28;20028;-21
2021/05/01 11:51:25;;;;;;;1.58;0.80;;;;;;;;;;5096082;28;20020;-21
2021/05/01 11:53:55;;;;;;;2.50;1.00;;;;;;;;;;5096159;28;20035;-19
2021/05/01 11:56:40;;;;;;;1.30;0.50;;;;;;;;;;5096353;28;20382;-20
2021/05/01 11:59:06;;;;;;;3.08;0.80;;;;;;;;;;5095551;28;20494;-19
2021/05/01 12:01:33;;;;;;;3.13;1.23;;;;;;;;;;5095829;28;20018;-19
2021/05/01 12:04:00;;;;;;;5.95;1.13;;;;;;;;;;5096213;28;20060;-19
2021/05/01 12:06:29;;;;;;;1.77;0.82;;;;;;;;;;5096029;28;20095;-20
2021/05/01 12:09:02;;;;;;;1.45;1.10;;;;;;;;;;5095896;28;20677;-19
2021/05/01 12:11:29;;;;;;;3.90;1.58;;;;;;;;;;5095786;28;20020;-19
2021/05/01 12:13:56;;;;;;;1.17;0.68;;;;;;;;;;5095692;28;20070;-22
2021/05/01 12:16:22;;;;;;;5.10;0.95;;;;;;;;;;5111369;28;20024;-19
2021/05/01 12:18:48;;;;;;;2.53;1.00;;;;;;;;;;5094218;28;20032;-19
2021/05/01 12:21:16;;;;;;;0.47;0.38;;;;;;;;;;5095901;28;20028;-19
2021/05/01 12:23:43;;;;;;;2.80;0.68;;;;;;;;;;5095596;28;20016;-19
2021/05/01 12:26:08;;;;;;;0.80;0.68;;;;;;;;;;5095391;28;20031;-20
2021/05/01 12:28:36;;;;;;;9.30;1.85;;;;;;;;;;5095222;28;20040;-19
2021/05/01 12:31:02;;;;;;;2.92;0.75;;;;;;;;;;5095779;28;20107;-18
2021/05/01 12:33:28;;;;;;;4.25;1.70;;;;;;;;;;5095445;28;20028;-18
2021/05/01 12:35:58;;;;;;;1.63;0.47;;;;;;;;;;5095360;28;20425;-19
2021/05/01 12:38:24;;;;;;;4.40;0.88;;;;;;;;;;5095111;28;20031;-19
2021/05/01 12:40:50;;;;;;;0.73;0.55;;;;;;;;;;5095186;28;20103;-19
2021/05/01 12:43:31;;;;;;;1.73;0.30;;;;;;;;;;5095140;28;20539;-19
2021/05/01 12:45:57;;;;;;;3.30;0.75;;;;;;;;;;5095464;28;20053;-19
2021/05/01 12:48:40;;;;;;;2.92;1.05;;;;;;;;;;5095042;28;20439;-19
2021/05/01 12:51:29;;;;;;;5.43;1.35;;;;;;;;;;5095335;28;20024;-19
2021/05/01 12:53:56;;;;;;;3.42;1.27;;;;;;;;;;5091456;28;20040;-19
2021/05/01 12:56:23;;;;;;;2.15;0.68;;;;;;;;;;5094766;28;20017;-19
2021/05/01 12:58:49;;;;;;;3.63;1.08;;;;;;;;;;5094741;28;20081;-19
2021/05/01 13:01:21;;;;;;;1.98;0.52;;;;;;;;;;5095136;28;20019;-19
2021/05/01 13:04:06;;;;;;;5.75;1.00;;;;;;;;;;5095049;28;20028;-19
2021/05/01 13:06:31;;;;;;;1.92;0.68;;;;;;;;;;5110334;28;20039;-19
2021/05/01 13:08:57;;;;;;;0.85;0.52;;;;;;;;;;5094604;28;20016;-19
2021/05/01 13:11:30;;;;;;;1.60;0.47;;;;;;;;;;5093065;28;20110;-19
2021/05/01 13:14:14;;;;;;;0.30;0.30;;;;;;;;;;5091942;28;20141;-19
2021/05/01 13:16:58;;;;;;;1.58;0.60;;;;;;;;;;5094470;28;20085;-19
2021/05/01 13:19:24;;;;;;;6.75;1.35;;;;;;;;;;5094640;28;20110;-19
2021/05/01 13:21:57;;;;;;;7.80;1.83;;;;;;;;;;4739096;28;10000604;-20
2021/05/01 13:24:25;;;;;;;5.30;1.52;;;;;;;;;;5090630;28;20114;-20
2021/05/01 13:26:55;;;;;;;3.53;1.33;;;;;;;;;;5090940;28;20779;-21
2021/05/01 13:29:26;;;;;;;5.68;0.70;;;;;;;;;;5090539;28;20059;-21
2021/05/01 13:31:54;;;;;;;6.22;1.30;;;;;;;;;;5090508;28;20035;-21
2021/05/01 13:34:21;;;;;;;2.55;1.13;;;;;;;;;;5090178;28;20012;-21
2021/05/01 13:36:47;;;;;;;9.55;1.20;;;;;;;;;;5088948;28;20020;-21
2021/05/01 13:39:23;;;;;;;7.68;1.58;;;;;;;;;;5089918;28;20031;-19
2021/05/01 13:42:07;;;;;;;4.72;1.52;;;;;;;;;;5090209;28;20055;-18
2021/05/01 13:44:46;;;;;;;4.28;1.10;;;;;;;;;;5090132;28;20417;-18
2021/05/01 13:47:17;;;;;;;0.30;0.20;;;;;;;;;;5089424;28;20040;-18
2021/05/01 13:49:43;;;;;;;3.88;1.60;;;;;;;;;;5090052;28;20157;-21
2021/05/01 13:52:08;;;;;;;2.40;0.55;;;;;;;;;;5090268;28;20091;-21
2021/05/01 13:54:34;;;;;;;0.43;0.32;;;;;;;;;;5090468;28;20118;-19
2021/05/01 13:57:06;;;;;;;4.32;0.22;;;;;;;;;;5089968;28;20016;-19
2021/05/01 13:59:32;;;;;;;5.68;1.30;;;;;;;;;;5088348;28;20089;-19
2021/05/01 14:01:57;;;;;;;3.78;1.00;;;;;;;;;;5090064;28;20016;-18
2021/05/01 14:04:33;;;;;;;5.93;1.17;;;;;;;;;;5090352;28;20110;-21
2021/05/01 14:06:59;;;;;;;5.30;1.02;;;;;;;;;;5089189;28;20028;-21
2021/05/01 14:09:26;;;;;;;4.05;1.30;;;;;;;;;;5089697;28;20031;-21
2021/05/01 14:11:52;;;;;;;4.30;1.45;;;;;;;;;;5090448;28;20036;-21
2021/05/01 14:14:20;;;;;;;9.63;1.45;;;;;;;;;;5090383;28;20028;-21
2021/05/01 14:16:56;;;;;;;17.05;1.88;;;;;;;;;;5089854;28;20036;-21
2021/05/01 14:19:21;;;;;;;5.40;1.40;;;;;;;;;;5089707;28;20044;-21
2021/05/01 14:21:50;;;;;;;3.47;0.63;;;;;;;;;;5089293;28;20019;-21
2021/05/01 14:24:16;;;;;;;4.65;1.65;;;;;;;;;;5089839;28;20027;-20
2021/05/01 14:27:00;;;;;;;5.78;1.35;;;;;;;;;;5089614;28;20013;-21
2021/05/01 14:29:27;;;;;;;9.32;1.52;;;;;;;;;;5088861;28;20569;-21
2021/05/01 14:32:12;;;;;;;6.85;1.80;;;;;;;;;;5089603;28;20036;-21
2021/05/01 14:34:37;;;;;;;7.38;1.42;;;;;;;;;;5089776;28;20028;-19
2021/05/01 14:37:03;;;;;;;2.88;0.90;;;;;;;;;;5089785;28;20046;-19
2021/05/01 14:39:29;;;;;;;4.63;0.98;;;;;;;;;;5089280;28;20506;-20
2021/05/01 14:41:54;;;;;;;6.93;1.10;;;;;;;;;;5089949;28;20044;-20
2021/05/01 14:44:24;;;;;;;4.53;1.70;;;;;;;;;;5089586;28;20384;-19